createdAt,value
2023-01-22T00:01:03.577Z,14.98
2023-01-22T00:03:30.398Z,14.70
2023-01-22T00:05:57.229Z,15.85
2023-01-22T00:08:24.067Z,16.02
2023-01-22T00:10:55.223Z,16.83
2023-01-22T00:13:24.252Z,15.10
2023-01-22T00:15:51.283Z,16.58
2023-01-22T00:18:19.204Z,18.70
2023-01-22T00:20:50.682Z,16.85
2023-01-22T00:23:17.707Z,16.15
2023-01-22T00:25:44.925Z,18.02
2023-01-22T00:28:12.818Z,16.17
2023-01-22T00:30:40.228Z,21.13
2023-01-22T00:33:07.169Z,19.60
2023-01-22T00:35:35.634Z,19.98
2023-01-22T00:38:02.418Z,19.42
2023-01-22T00:40:29.355Z,22.52
2023-01-22T00:42:56.067Z,20.23
2023-01-22T00:45:22.788Z,22.42
2023-01-22T00:47:49.530Z,20.08
2023-01-22T00:50:16.889Z,22.13
2023-01-22T00:52:45.197Z,20.83
2023-01-22T00:55:12.615Z,22.50
2023-01-22T00:57:39.393Z,21.63
2023-01-22T01:00:06.792Z,25.10
2023-01-22T01:02:33.552Z,22.70
2023-01-22T01:05:01.980Z,24.75
2023-01-22T01:07:29.684Z,22.25
2023-01-22T01:09:56.664Z,23.23
2023-01-22T01:12:23.404Z,25.42
2023-01-22T01:14:51.174Z,22.13
2023-01-22T01:17:17.863Z,21.98
2023-01-22T01:19:44.634Z,23.13
2023-01-22T01:22:11.805Z,22.88
2023-01-22T01:24:39.213Z,22.67
2023-01-22T01:27:06.651Z,21.17
2023-01-22T01:29:33.389Z,21.70
2023-01-22T01:32:00.126Z,22.45
2023-01-22T01:34:26.929Z,19.60
2023-01-22T01:36:53.650Z,23.45
2023-01-22T01:39:20.517Z,21.40
2023-01-22T01:41:47.256Z,23.02
2023-01-22T01:44:15.628Z,22.20
2023-01-22T01:46:50.558Z,24.05
2023-01-22T01:49:26.761Z,23.75
2023-01-22T01:51:56.508Z,25.05
2023-01-22T01:54:23.359Z,23.40
2023-01-22T01:56:54.671Z,22.23
2023-01-22T01:59:25.442Z,24.25
2023-01-22T02:01:55.767Z,24.02
2023-01-22T02:04:23.572Z,24.38
2023-01-22T02:06:50.356Z,21.92
2023-01-22T02:09:17.349Z,23.23
2023-01-22T02:11:44.514Z,22.35
2023-01-22T02:14:20.144Z,26.90
2023-01-22T02:16:47.101Z,23.30
2023-01-22T02:19:13.911Z,25.05
2023-01-22T02:21:43.267Z,27.83
2023-01-22T02:24:11.759Z,26.45
2023-01-22T02:26:40.581Z,25.52
2023-01-22T02:29:09.696Z,27.63
2023-01-22T02:31:40.996Z,24.77
2023-01-22T02:34:08.917Z,28.15
2023-01-22T02:36:38.163Z,25.45
2023-01-22T02:39:05.421Z,28.48
2023-01-22T02:41:32.468Z,27.48
2023-01-22T02:44:00.378Z,25.77
2023-01-22T02:46:27.953Z,25.58
2023-01-22T02:48:54.774Z,24.42
2023-01-22T02:51:21.887Z,25.88
2023-01-22T02:53:52.228Z,25.77
2023-01-22T02:56:19.886Z,26.52
2023-01-22T02:58:46.769Z,28.42
2023-01-22T03:01:20.813Z,26.83
2023-01-22T03:03:52.234Z,30.05
2023-01-22T03:06:23.918Z,24.08
2023-01-22T03:08:57.466Z,28.35
2023-01-22T03:11:26.169Z,27.73
2023-01-22T03:14:14.660Z,28.90
2023-01-22T03:17:02.163Z,26.67
2023-01-22T03:19:48.546Z,31.83
2023-01-22T03:22:19.488Z,28.30
2023-01-22T03:24:52.075Z,30.50
2023-01-22T03:27:24.064Z,28.58
2023-01-22T03:29:51.005Z,28.17
2023-01-22T03:32:20.619Z,29.80
2023-01-22T03:34:48.697Z,29.77
2023-01-22T03:37:15.719Z,29.55
2023-01-22T03:39:44.705Z,32.28
2023-01-22T03:42:18.690Z,32.30
2023-01-22T03:44:45.529Z,29.40
2023-01-22T03:47:13.550Z,28.27
2023-01-22T03:49:41.804Z,33.70
2023-01-22T03:52:10.006Z,34.78
2023-01-22T03:54:38.546Z,32.25
2023-01-22T03:57:07.204Z,31.17
2023-01-22T03:59:37.264Z,32.28
2023-01-22T04:02:04.045Z,38.45
2023-01-22T04:04:35.015Z,32.50
2023-01-22T04:07:02.429Z,37.47
2023-01-22T04:09:29.143Z,37.25
2023-01-22T04:11:57.319Z,34.05
2023-01-22T04:14:24.048Z,34.72
2023-01-22T04:16:57.406Z,38.40
2023-01-22T04:19:42.713Z,38.53
2023-01-22T04:22:20.079Z,32.95
2023-01-22T04:24:49.321Z,39.15
2023-01-22T04:27:16.267Z,45.95
2023-01-22T04:29:43.114Z,38.75
2023-01-22T04:32:10.425Z,42.60
2023-01-22T04:34:57.520Z,40.40
2023-01-22T04:37:33.954Z,38.30
2023-01-22T04:40:00.670Z,37.10
2023-01-22T04:42:27.509Z,41.35
2023-01-22T04:44:54.484Z,41.10
2023-01-22T04:47:21.557Z,42.08
2023-01-22T04:49:48.264Z,36.58
2023-01-22T04:52:16.269Z,37.30
2023-01-22T04:54:43.963Z,40.22
2023-01-22T04:57:11.522Z,37.38
2023-01-22T04:59:38.305Z,37.83
2023-01-22T05:02:05.797Z,36.75
2023-01-22T05:04:32.936Z,34.55
2023-01-22T05:06:59.713Z,36.03
2023-01-22T05:09:27.056Z,36.22
2023-01-22T05:11:58.145Z,34.25
2023-01-22T05:14:26.197Z,36.17
2023-01-22T05:16:54.123Z,33.45
2023-01-22T05:19:20.850Z,37.05
2023-01-22T05:21:48.260Z,36.58
2023-01-22T05:24:18.605Z,36.60
2023-01-22T05:26:46.040Z,36.50
2023-01-22T05:32:25.255Z,33.60
2023-01-22T05:34:54.996Z,39.97
2023-01-22T05:37:21.790Z,37.10
2023-01-22T05:39:50.954Z,31.67
2023-01-22T05:42:18.264Z,29.50
2023-01-22T05:44:50.459Z,33.42
2023-01-22T05:47:20.822Z,29.13
2023-01-22T05:50:01.967Z,30.10
2023-01-22T05:52:29.594Z,30.40
2023-01-22T05:54:56.528Z,31.08
2023-01-22T05:57:23.224Z,32.95
2023-01-22T05:59:50.021Z,27.48
2023-01-22T06:02:16.858Z,27.98
2023-01-22T06:04:44.807Z,28.65
2023-01-22T06:07:22.581Z,28.10
2023-01-22T06:09:49.312Z,26.95
2023-01-22T06:12:18.529Z,23.63
2023-01-22T06:14:46.488Z,21.67
2023-01-22T06:17:13.482Z,26.35
2023-01-22T06:19:46.438Z,24.00
2023-01-22T06:22:13.335Z,23.40
2023-01-22T06:25:00.322Z,21.85
2023-01-22T06:27:41.344Z,22.67
2023-01-22T06:30:08.911Z,22.70
2023-01-22T06:32:35.857Z,19.38
2023-01-22T06:35:02.590Z,17.33
2023-01-22T06:37:29.570Z,16.95
2023-01-22T06:39:57.118Z,18.77
2023-01-22T06:42:31.423Z,18.48
2023-01-22T06:44:58.173Z,18.48
2023-01-22T06:47:29.812Z,17.60
2023-01-22T06:49:56.682Z,16.88
2023-01-22T06:52:23.485Z,17.95
2023-01-22T06:54:50.201Z,14.95
2023-01-22T06:57:16.970Z,12.25
2023-01-22T06:59:44.193Z,16.10
2023-01-22T07:02:20.111Z,15.43
2023-01-22T07:04:47.155Z,13.40
2023-01-22T07:07:14.141Z,15.85
2023-01-22T07:09:41.155Z,13.73
2023-01-22T07:12:08.260Z,14.07
2023-01-22T07:14:37.565Z,17.80
2023-01-22T07:17:04.640Z,17.48
2023-01-22T07:19:31.417Z,18.20
2023-01-22T07:21:58.133Z,15.77
2023-01-22T07:24:24.866Z,18.35
2023-01-22T07:26:51.585Z,18.58
2023-01-22T07:29:18.284Z,16.25
2023-01-22T07:31:49.378Z,15.85
2023-01-22T07:34:16.627Z,21.67
2023-01-22T07:36:43.315Z,18.10
2023-01-22T07:39:10.016Z,18.25
2023-01-22T07:41:36.772Z,16.30
2023-01-22T07:44:11.859Z,15.63
2023-01-22T07:46:41.652Z,15.48
2023-01-22T07:49:08.490Z,15.00
2023-01-22T07:51:35.271Z,15.18
2023-01-22T07:54:01.983Z,13.38
2023-01-22T07:56:28.792Z,15.27
2023-01-22T07:58:55.529Z,17.77
2023-01-22T08:01:22.240Z,15.35
2023-01-22T08:03:48.944Z,13.30
2023-01-22T08:06:20.790Z,10.65
2023-01-22T08:08:48.170Z,12.02
2023-01-22T08:11:15.091Z,12.55
2023-01-22T08:13:44.556Z,12.18
2023-01-22T08:16:11.467Z,13.50
2023-01-22T08:18:38.335Z,10.70
2023-01-22T08:21:05.371Z,11.00
2023-01-22T08:23:32.434Z,12.48
2023-01-22T08:26:00.648Z,12.55
2023-01-22T08:28:27.905Z,12.98
2023-01-22T08:30:59.153Z,12.23
2023-01-22T08:33:26.487Z,11.57
2023-01-22T08:35:53.234Z,13.00
2023-01-22T08:38:20.097Z,10.70
2023-01-22T08:40:52.768Z,10.63
2023-01-22T08:43:19.927Z,9.60
2023-01-22T08:45:49.519Z,10.75
2023-01-22T08:48:16.739Z,7.88
2023-01-22T08:50:43.524Z,8.35
2023-01-22T08:53:10.620Z,9.35
2023-01-22T08:55:37.521Z,8.93
2023-01-22T08:58:04.321Z,8.50
2023-01-22T09:00:31.112Z,8.15
2023-01-22T09:02:59.850Z,10.10
2023-01-22T09:05:27.721Z,8.38
2023-01-22T09:07:54.518Z,10.93
2023-01-22T09:10:22.067Z,7.90
2023-01-22T09:12:49.043Z,11.07
2023-01-22T09:15:15.828Z,9.65
2023-01-22T09:17:42.884Z,10.60
2023-01-22T09:20:10.227Z,9.20
2023-01-22T09:22:37.012Z,11.55
2023-01-22T09:25:05.096Z,13.18
2023-01-22T09:27:32.226Z,9.63
2023-01-22T09:30:00.218Z,9.32
2023-01-22T09:32:27.292Z,9.65
2023-01-22T09:34:54.101Z,9.10
2023-01-22T09:37:20.989Z,12.13
2023-01-22T09:39:50.906Z,12.30
2023-01-22T09:42:38.220Z,11.93
2023-01-22T09:45:11.061Z,8.10
2023-01-22T09:47:50.117Z,10.35
2023-01-22T09:50:29.004Z,11.35
2023-01-22T09:52:59.283Z,12.45
2023-01-22T09:55:30.858Z,9.50
2023-01-22T09:58:01.759Z,12.70
2023-01-22T10:00:39.991Z,11.23
2023-01-22T10:03:23.651Z,12.75
2023-01-22T10:08:58.886Z,14.10
2023-01-22T10:11:26.103Z,13.75
2023-01-22T10:13:57.175Z,13.35
2023-01-22T10:16:27.742Z,15.85
2023-01-22T10:19:05.380Z,15.48
2023-01-22T10:21:37.483Z,15.85
2023-01-22T10:24:04.306Z,15.30
2023-01-22T10:26:48.161Z,14.35
2023-01-22T10:29:34.516Z,16.13
2023-01-22T10:32:22.807Z,13.77
2023-01-22T10:35:07.543Z,15.98
2023-01-22T10:37:49.794Z,13.68
2023-01-22T10:40:31.404Z,14.50
2023-01-22T10:43:17.875Z,12.70
2023-01-22T10:46:01.753Z,12.02
2023-01-22T10:48:28.677Z,12.95
2023-01-22T10:51:10.544Z,16.98
2023-01-22T10:53:39.643Z,12.00
2023-01-22T10:56:12.462Z,14.25
2023-01-22T11:01:32.524Z,12.02
2023-01-22T11:03:59.425Z,11.68
2023-01-22T11:06:39.483Z,11.65
2023-01-22T11:09:15.816Z,13.80
2023-01-22T11:11:48.992Z,12.98
2023-01-22T11:14:32.264Z,13.10
2023-01-22T11:17:21.084Z,15.68
2023-01-22T11:20:00.342Z,15.35
2023-01-22T11:22:37.371Z,17.17
2023-01-22T11:25:08.109Z,18.48
2023-01-22T11:28:17.820Z,17.70
2023-01-22T11:30:53.930Z,20.88
2023-01-22T11:33:40.868Z,19.98
2023-01-22T11:36:27.376Z,18.75
2023-01-22T11:39:23.269Z,20.23
2023-01-22T11:42:02.799Z,21.30
2023-01-22T11:44:55.851Z,20.58
2023-01-22T11:47:55.597Z,18.25
2023-01-22T11:50:41.249Z,18.20
2023-01-22T11:53:39.693Z,20.63
2023-01-22T11:56:11.252Z,20.00
2023-01-22T11:58:45.482Z,16.70
2023-01-22T12:01:20.695Z,18.45
2023-01-22T12:04:17.191Z,16.42
2023-01-22T12:06:58.810Z,16.90
2023-01-22T12:09:35.166Z,17.25
2023-01-22T12:12:23.267Z,12.82
2023-01-22T12:15:00.154Z,15.95
2023-01-22T12:17:52.443Z,13.50
2023-01-22T12:20:56.166Z,15.68
2023-01-22T12:23:34.533Z,14.63
2023-01-22T12:26:11.568Z,15.40
2023-01-22T12:28:54.502Z,15.95
2023-01-22T12:31:29.828Z,14.07
2023-01-22T12:34:03.807Z,13.82
2023-01-22T12:36:33.055Z,13.25
2023-01-22T12:39:30.808Z,14.43
2023-01-22T12:42:16.595Z,13.43
2023-01-22T12:44:55.860Z,15.93
2023-01-22T12:47:34.135Z,14.50
2023-01-22T12:50:02.903Z,18.98
2023-01-22T12:52:37.869Z,16.02
2023-01-22T12:57:49.239Z,17.45
2023-01-22T13:00:34.875Z,14.23
2023-01-22T13:03:31.343Z,15.48
2023-01-22T13:06:00.233Z,15.23
2023-01-22T13:08:44.830Z,12.32
2023-01-22T13:11:35.745Z,17.00
2023-01-22T13:14:29.206Z,15.05
2023-01-22T13:17:03.564Z,16.75
2023-01-22T13:19:48.512Z,16.80
2023-01-22T13:22:20.125Z,17.75
2023-01-22T13:24:55.191Z,16.08
2023-01-22T13:27:36.416Z,14.25
2023-01-22T13:30:17.613Z,14.73
2023-01-22T13:32:47.227Z,13.48
2023-01-22T13:35:16.823Z,14.73
2023-01-22T13:37:51.835Z,16.27
2023-01-22T13:40:21.675Z,15.90
2023-01-22T13:42:48.986Z,14.05
2023-01-22T13:45:28.075Z,14.77
2023-01-22T13:48:00.575Z,18.38
2023-01-22T13:50:32.089Z,18.88
2023-01-22T13:53:01.195Z,16.00
2023-01-22T13:55:29.534Z,17.42
2023-01-22T13:57:58.734Z,17.85
2023-01-22T14:00:34.379Z,20.48
2023-01-22T14:03:01.924Z,20.00
2023-01-22T14:05:33.333Z,25.02
2023-01-22T14:08:07.072Z,19.85
2023-01-22T14:10:34.204Z,21.95
2023-01-22T14:13:03.086Z,23.60
2023-01-22T14:15:30.457Z,22.63
2023-01-22T14:18:29.487Z,24.40
2023-01-22T14:20:56.229Z,24.55
2023-01-22T14:23:23.040Z,25.90
2023-01-22T14:25:52.651Z,26.08
2023-01-22T14:28:19.965Z,26.77
2023-01-22T14:30:47.566Z,27.77
2023-01-22T14:33:19.076Z,30.25
2023-01-22T14:35:45.875Z,26.98
2023-01-22T14:38:12.692Z,29.92
2023-01-22T14:40:40.335Z,26.90
2023-01-22T14:43:07.193Z,30.98
2023-01-22T14:45:34.024Z,30.05
2023-01-22T14:48:00.950Z,31.73
2023-01-22T14:50:27.976Z,29.08
2023-01-22T14:52:54.770Z,31.23
2023-01-22T14:55:21.908Z,33.70
2023-01-22T14:57:49.043Z,27.80
2023-01-22T15:00:18.432Z,29.77
2023-01-22T15:02:45.453Z,31.25
2023-01-22T15:05:12.837Z,30.52
2023-01-22T15:07:39.933Z,34.38
2023-01-22T15:10:08.331Z,29.15
2023-01-22T15:12:35.159Z,30.42
2023-01-22T15:15:01.934Z,32.95
2023-01-22T15:17:30.292Z,36.30
2023-01-22T15:19:57.261Z,30.20
2023-01-22T15:22:24.143Z,35.72
2023-01-22T15:24:50.900Z,42.75
2023-01-22T15:27:18.909Z,34.25
2023-01-22T15:29:46.482Z,33.25
2023-01-22T15:32:13.621Z,32.35
2023-01-22T15:34:40.566Z,35.83
2023-01-22T15:37:07.363Z,35.90
2023-01-22T15:39:34.216Z,37.88
2023-01-22T15:42:00.971Z,34.60
2023-01-22T15:44:27.766Z,36.15
2023-01-22T15:46:55.345Z,34.60
2023-01-22T15:49:22.035Z,34.72
2023-01-22T15:51:49.157Z,36.47
2023-01-22T15:54:16.541Z,38.20
2023-01-22T15:56:44.256Z,36.03
2023-01-22T15:59:12.417Z,35.05
2023-01-22T16:01:39.686Z,36.85
2023-01-22T16:04:07.278Z,33.10
2023-01-22T16:06:35.091Z,31.48
2023-01-22T16:09:03.778Z,32.17
2023-01-22T16:11:31.057Z,32.10
2023-01-22T16:14:00.736Z,34.65
2023-01-22T16:16:33.921Z,34.70
2023-01-22T16:19:02.923Z,31.50
2023-01-22T16:21:30.217Z,31.10
2023-01-22T16:23:58.995Z,30.15
2023-01-22T16:26:29.049Z,29.52
2023-01-22T16:28:57.619Z,30.45
2023-01-22T16:31:26.962Z,27.67
2023-01-22T16:33:59.924Z,28.58
2023-01-22T16:36:32.630Z,29.08
2023-01-22T16:39:00.451Z,29.60
2023-01-22T16:41:35.054Z,23.63
2023-01-22T16:44:11.092Z,27.65
2023-01-22T16:46:40.833Z,24.23
2023-01-22T16:49:14.753Z,26.77
2023-01-22T16:51:53.281Z,27.60
2023-01-22T16:54:24.347Z,25.70
2023-01-22T16:56:51.479Z,25.88
2023-01-22T16:59:18.294Z,25.50
2023-01-22T17:01:45.350Z,25.05
2023-01-22T17:04:12.243Z,23.63
2023-01-22T17:06:45.385Z,26.58
2023-01-22T17:09:18.425Z,32.45
2023-01-22T17:11:47.078Z,28.75
2023-01-22T17:14:18.164Z,27.83
2023-01-22T17:16:45.269Z,27.65
2023-01-22T17:19:12.123Z,27.75
2023-01-22T17:21:38.841Z,22.05
2023-01-22T17:24:05.865Z,26.55
2023-01-22T17:26:32.674Z,21.77
2023-01-22T17:28:59.546Z,23.10
2023-01-22T17:31:27.930Z,22.52
2023-01-22T17:33:55.654Z,23.23
2023-01-22T17:36:24.311Z,21.15
2023-01-22T17:38:52.249Z,24.98
2023-01-22T17:41:21.367Z,24.10
2023-01-22T17:43:52.063Z,24.80
2023-01-22T17:46:21.637Z,25.42
2023-01-22T17:48:49.456Z,23.35
2023-01-22T17:51:19.841Z,25.70
2023-01-22T17:53:48.236Z,25.95
2023-01-22T17:56:20.745Z,28.17
2023-01-22T17:58:50.471Z,26.65
2023-01-22T18:01:18.957Z,29.95
2023-01-22T18:03:46.620Z,29.10
2023-01-22T18:06:14.205Z,28.58
2023-01-22T18:08:42.448Z,26.30
2023-01-22T18:11:11.801Z,26.42
2023-01-22T18:13:39.491Z,28.67
2023-01-22T18:16:08.130Z,30.20
2023-01-22T18:18:35.674Z,29.80
2023-01-22T18:21:02.591Z,29.77
2023-01-22T18:23:29.492Z,27.35
2023-01-22T18:25:58.012Z,25.98
2023-01-22T18:28:26.728Z,26.08
2023-01-22T18:30:54.471Z,25.42
2023-01-22T18:33:21.782Z,30.02
2023-01-22T18:35:50.835Z,25.88
2023-01-22T18:38:21.035Z,27.42
2023-01-22T18:40:48.772Z,29.38
2023-01-22T18:43:17.584Z,28.50
2023-01-22T18:45:44.376Z,27.67
2023-01-22T18:48:15.989Z,25.90
2023-01-22T18:50:43.436Z,27.85
2023-01-22T18:53:10.246Z,32.35
2023-01-22T18:55:37.202Z,27.95
2023-01-22T18:58:27.464Z,27.70
2023-01-22T19:01:21.581Z,28.08
2023-01-22T19:03:51.519Z,27.63
2023-01-22T19:06:22.913Z,29.08
2023-01-22T19:09:03.589Z,30.92
2023-01-22T19:11:36.806Z,31.05
2023-01-22T19:14:06.455Z,29.90
2023-01-22T19:16:33.499Z,32.60
2023-01-22T19:19:04.284Z,34.40
2023-01-22T19:21:31.719Z,34.13
2023-01-22T19:24:00.707Z,35.00
2023-01-22T19:26:31.229Z,35.97
2023-01-22T19:29:01.065Z,34.70
2023-01-22T19:31:32.394Z,34.08
2023-01-22T19:34:00.539Z,36.92
2023-01-22T19:36:30.232Z,35.95
2023-01-22T19:38:59.580Z,52.65
2023-01-22T19:41:27.354Z,35.25
2023-01-22T19:43:56.125Z,33.72
2023-01-22T19:46:23.756Z,33.90
2023-01-22T19:48:50.639Z,35.58
2023-01-22T19:51:19.530Z,32.30
2023-01-22T19:53:48.962Z,28.75
2023-01-22T19:56:21.147Z,32.70
2023-01-22T19:58:53.875Z,28.90
2023-01-22T20:01:23.028Z,27.52
2023-01-22T20:03:50.616Z,32.67
2023-01-22T20:06:18.203Z,27.77
2023-01-22T20:08:46.076Z,30.17
2023-01-22T20:11:14.883Z,31.50
2023-01-22T20:13:43.444Z,31.35
2023-01-22T20:16:26.389Z,27.20
2023-01-22T20:18:54.571Z,27.75
2023-01-22T20:21:23.243Z,32.05
2023-01-22T20:23:50.979Z,29.70
2023-01-22T20:26:20.299Z,31.85
2023-01-22T20:28:48.080Z,33.58
2023-01-22T20:31:17.899Z,30.73
2023-01-22T20:33:44.884Z,32.10
2023-01-22T20:36:15.302Z,31.00
2023-01-22T20:38:43.513Z,30.15
2023-01-22T20:41:10.254Z,29.98
2023-01-22T20:43:39.291Z,33.50
2023-01-22T20:46:13.931Z,28.10
2023-01-22T20:48:42.427Z,31.10
2023-01-22T20:51:21.507Z,29.05
2023-01-22T20:53:49.842Z,31.15
2023-01-22T20:56:20.989Z,31.60
2023-01-22T20:58:48.278Z,31.20
2023-01-22T21:01:19.131Z,29.95
2023-01-22T21:03:47.735Z,29.33
2023-01-22T21:06:16.722Z,26.33
2023-01-22T21:08:44.236Z,30.00
2023-01-22T21:11:14.045Z,27.52
2023-01-22T21:13:40.929Z,29.67
2023-01-22T21:16:16.007Z,28.15
2023-01-22T21:18:44.753Z,30.10
2023-01-22T21:21:15.134Z,28.83
2023-01-22T21:23:41.961Z,29.30
2023-01-22T21:26:12.134Z,29.73
2023-01-22T21:28:40.180Z,27.13
2023-01-22T21:31:11.599Z,29.27
2023-01-22T21:33:39.137Z,29.15
2023-01-22T21:36:07.705Z,32.50
2023-01-22T21:38:35.019Z,33.25
2023-01-22T21:41:14.043Z,32.08
2023-01-22T21:44:01.547Z,32.95
2023-01-22T21:46:31.202Z,34.83
2023-01-22T21:49:02.116Z,38.88
2023-01-22T21:51:31.009Z,38.40
2023-01-22T21:54:02.189Z,36.72
2023-01-22T21:56:28.884Z,36.42
2023-01-22T21:58:56.666Z,37.67
2023-01-22T22:01:23.594Z,39.33
2023-01-22T22:03:50.401Z,36.35
2023-01-22T22:06:19.918Z,39.40
2023-01-22T22:08:46.690Z,34.63
2023-01-22T22:11:14.177Z,40.58
2023-01-22T22:13:42.921Z,32.30
2023-01-22T22:16:11.086Z,36.30
2023-01-22T22:18:41.463Z,38.40
2023-01-22T22:21:10.347Z,34.42
2023-01-22T22:23:37.236Z,37.83
2023-01-22T22:26:05.917Z,34.03
2023-01-22T22:28:33.771Z,33.58
2023-01-22T22:31:12.192Z,38.35
2023-01-22T22:33:47.986Z,37.38
2023-01-22T22:36:22.872Z,37.30
2023-01-22T22:38:51.280Z,37.88
2023-01-22T22:41:26.950Z,38.85
2023-01-22T22:43:55.172Z,38.72
2023-01-22T22:46:26.123Z,36.70
2023-01-22T22:48:54.868Z,37.92
2023-01-22T22:51:29.507Z,42.20
2023-01-22T22:54:01.854Z,42.38
2023-01-22T22:56:29.393Z,37.20
2023-01-22T22:58:57.797Z,43.15
2023-01-22T23:01:25.623Z,40.05
2023-01-22T23:03:53.704Z,42.20
2023-01-22T23:06:26.275Z,43.33
2023-01-22T23:09:08.216Z,43.97
2023-01-22T23:11:36.525Z,46.20
2023-01-22T23:14:03.945Z,45.70
2023-01-22T23:16:33.102Z,47.20
2023-01-22T23:19:02.825Z,43.38
2023-01-22T23:21:30.075Z,44.88
2023-01-22T23:23:57.313Z,44.38
2023-01-22T23:26:30.016Z,43.33
2023-01-22T23:28:59.033Z,48.33
2023-01-22T23:31:27.263Z,45.72
2023-01-22T23:33:55.539Z,47.08
2023-01-22T23:36:22.688Z,48.67
2023-01-22T23:38:50.090Z,49.22
2023-01-22T23:41:18.597Z,47.20
2023-01-22T23:43:45.961Z,48.13
2023-01-22T23:46:25.166Z,48.38
2023-01-22T23:48:54.280Z,45.95
2023-01-22T23:51:21.803Z,50.78
2023-01-22T23:53:55.273Z,52.22
2023-01-22T23:58:54.110Z,47.55
